Time;durP1;ratioP1;P1;durP2;ratioP2;P2;SDS_P1;SDS_P2;PMS_P1;PMS_P2;Temp;Humidity;BMP_temperature;BMP_pressure;BME280_temperature;BME280_humidity;BME280_pressure;Samples;Min_cycle;Max_cycle;Signal;HPM_P1;HPM_P2
2022/01/31 00:00:35;;;;;;;0.40;0.23;;;;;;;5.24;69.30;100968.47;5033200;28;20466;-71
2022/01/31 00:03:02;;;;;;;0.40;0.20;;;;;;;5.19;69.88;100967.63;5033120;28;20493;-71
2022/01/31 00:05:29;;;;;;;0.40;0.20;;;;;;;5.14;70.44;100956.84;5032641;28;20578;-71
2022/01/31 00:07:55;;;;;;;0.40;0.30;;;;;;;5.16;70.60;100971.63;5033016;28;20473;-71
2022/01/31 00:10:28;;;;;;;0.40;0.20;;;;;;;5.15;71.41;100963.81;5033147;28;20467;-71
2022/01/31 00:13:00;;;;;;;0.40;0.20;;;;;;;5.15;72.26;100972.69;5032948;28;20443;-71
2022/01/31 00:15:27;;;;;;;0.40;0.20;;;;;;;5.10;73.30;100961.91;5033320;28;20434;-71
2022/01/31 00:17:54;;;;;;;0.40;0.30;;;;;;;5.10;74.27;100940.44;5033248;28;20443;-71
2022/01/31 00:20:21;;;;;;;0.40;0.20;;;;;;;5.14;74.65;100936.16;5033057;28;20463;-71
2022/01/31 00:22:47;;;;;;;0.40;0.30;;;;;;;5.16;74.79;100922.47;5033196;28;20462;-71
2022/01/31 00:25:14;;;;;;;0.40;0.30;;;;;;;5.17;75.58;100921.41;5033048;28;20482;-71
2022/01/31 00:27:42;;;;;;;0.40;0.30;;;;;;;5.17;76.80;100908.78;5033151;28;20435;-71
2022/01/31 00:30:10;;;;;;;0.40;0.20;;;;;;;5.12;77.46;100900.69;5033037;28;20536;-71
2022/01/31 00:32:36;;;;;;;0.40;0.20;;;;;;;5.17;78.01;100908.78;5034217;28;20438;-71
2022/01/31 00:35:03;;;;;;;0.40;0.30;;;;;;;5.15;78.47;100910.13;5036744;28;20851;-71
2022/01/31 00:37:29;;;;;;;0.40;0.27;;;;;;;5.10;79.01;100893.97;5037036;28;20447;-71
2022/01/31 00:39:56;;;;;;;0.40;0.20;;;;;;;5.08;79.61;100896.91;5036943;28;20882;-71
2022/01/31 00:42:24;;;;;;;0.40;0.30;;;;;;;4.95;80.96;100887.41;5036893;28;20470;-71
2022/01/31 00:44:54;;;;;;;0.40;0.30;;;;;;;4.99;81.50;100885.00;5036817;28;20478;-70
2022/01/31 00:47:24;;;;;;;0.40;0.20;;;;;;;4.96;82.15;100880.19;5036880;28;20477;-71
2022/01/31 00:49:54;;;;;;;0.40;0.20;;;;;;;4.94;82.66;100887.66;5036781;28;20458;-71
2022/01/31 00:52:20;;;;;;;0.40;0.30;;;;;;;4.87;83.91;100884.38;5036771;28;20454;-71
2022/01/31 00:54:48;;;;;;;0.40;0.20;;;;;;;4.84;85.08;100876.84;5036787;28;20435;-71
2022/01/31 00:57:14;;;;;;;0.40;0.30;;;;;;;4.72;85.73;100869.75;5036694;28;20447;-71
2022/01/31 00:59:41;;;;;;;0.40;0.30;;;;;;;4.70;85.90;100866.53;5036754;28;20501;-71
2022/01/31 01:02:08;;;;;;;0.40;0.30;;;;;;;4.69;86.75;100854.19;5036536;28;20454;-71
2022/01/31 01:04:35;;;;;;;0.40;0.30;;;;;;;4.63;87.40;100849.81;5036445;28;20479;-71
2022/01/31 01:07:02;;;;;;;0.40;0.20;;;;;;;4.61;87.42;100840.44;5036510;28;20439;-71
2022/01/31 01:09:28;;;;;;;0.40;0.20;;;;;;;4.58;87.66;100841.75;5035962;28;20967;-71
2022/01/31 01:11:54;;;;;;;0.40;0.30;;;;;;;4.59;88.03;100837.19;5036477;28;20447;-71
2022/01/31 01:14:21;;;;;;;0.40;0.30;;;;;;;4.61;88.27;100835.88;5036201;28;20804;-71
2022/01/31 01:16:47;;;;;;;0.40;0.30;;;;;;;4.58;88.17;100830.19;5036068;28;20858;-71
2022/01/31 01:19:15;;;;;;;0.40;0.30;;;;;;;4.64;87.57;100821.94;5036295;28;20439;-71
2022/01/31 01:21:41;;;;;;;0.40;0.30;;;;;;;4.67;87.50;100815.25;5036189;28;20466;-71
2022/01/31 01:24:08;;;;;;;0.40;0.30;;;;;;;4.72;87.18;100807.25;5036145;28;20450;-71
2022/01/31 01:26:34;;;;;;;0.40;0.30;;;;;;;4.74;86.51;100808.63;5036102;28;20450;-71
2022/01/31 01:29:01;;;;;;;0.40;0.20;;;;;;;4.78;86.03;100798.16;5036111;28;20505;-71
2022/01/31 01:31:27;;;;;;;0.40;0.20;;;;;;;4.79;86.12;100805.16;5035691;28;20980;-71
2022/01/31 01:33:54;;;;;;;0.40;0.20;;;;;;;4.85;86.49;100789.91;5035855;28;20931;-71
2022/01/31 01:36:22;;;;;;;0.40;0.30;;;;;;;4.87;86.37;100785.91;5036115;28;20439;-71
2022/01/31 01:38:48;;;;;;;0.40;0.30;;;;;;;4.89;86.13;100775.72;5035940;28;20447;-71
2022/01/31 01:41:15;;;;;;;0.40;0.20;;;;;;;4.95;85.72;100773.84;5035888;28;20489;-71
2022/01/31 01:43:42;;;;;;;0.40;0.30;;;;;;;4.95;84.62;100766.63;5035690;28;20450;-71
2022/01/31 01:46:08;;;;;;;0.40;0.30;;;;;;;4.88;84.83;100747.25;5035511;28;20856;-71
2022/01/31 01:48:35;;;;;;;0.40;0.30;;;;;;;4.87;84.60;100747.50;5035862;28;20867;-71
2022/01/31 01:51:02;;;;;;;0.40;0.20;;;;;;;4.89;84.16;100745.38;5035726;28;20463;-71
2022/01/31 01:53:30;;;;;;;0.40;0.30;;;;;;;4.84;83.22;100738.09;5035619;28;20439;-71
2022/01/31 01:55:56;;;;;;;0.40;0.20;;;;;;;4.82;83.53;100724.13;5035678;28;20447;-71
2022/01/31 01:58:26;;;;;;;0.40;0.20;;;;;;;4.79;82.89;100717.41;5035613;28;20444;-71
2022/01/31 02:00:59;;;;;;;0.40;0.20;;;;;;;4.84;82.49;100721.19;5035424;28;20836;-71
2022/01/31 02:03:27;;;;;;;0.40;0.20;;;;;;;4.80;81.91;100710.97;5035572;28;20431;-71
2022/01/31 02:05:54;;;;;;;0.40;0.30;;;;;;;4.81;82.19;100703.72;5035098;28;21027;-71
2022/01/31 02:08:21;;;;;;;0.40;0.20;;;;;;;4.82;81.43;100710.72;5035133;28;20854;-71
2022/01/31 02:10:49;;;;;;;0.40;0.30;;;;;;;4.78;80.85;100705.06;5035358;28;20456;-71
2022/01/31 02:13:16;;;;;;;0.40;0.30;;;;;;;4.77;80.86;100692.69;5035313;28;20451;-71
2022/01/31 02:15:45;;;;;;;0.40;0.30;;;;;;;4.77;80.58;100683.84;5035338;28;20443;-71
2022/01/31 02:18:12;;;;;;;0.40;0.20;;;;;;;4.76;80.51;100677.69;5034986;28;20446;-71
2022/01/31 02:20:41;;;;;;;0.40;0.30;;;;;;;4.75;79.66;100676.06;5035152;28;20839;-71
2022/01/31 02:23:08;;;;;;;0.40;0.30;;;;;;;4.75;79.59;100662.66;5034871;28;20937;-71
2022/01/31 02:25:35;;;;;;;0.40;0.27;;;;;;;4.72;79.12;100657.81;5034999;28;20557;-71
2022/01/31 02:28:01;;;;;;;0.40;0.20;;;;;;;4.71;79.32;100658.88;5034745;28;20816;-71
2022/01/31 02:30:28;;;;;;;0.40;0.30;;;;;;;4.72;79.06;100644.38;5035008;28;20463;-71
2022/01/31 02:32:54;;;;;;;0.40;0.20;;;;;;;4.73;79.44;100637.13;5035004;28;20450;-71
2022/01/31 02:35:21;;;;;;;0.40;0.30;;;;;;;4.69;79.36;100633.38;5034931;28;20557;-71
2022/01/31 02:37:49;;;;;;;0.40;0.20;;;;;;;4.69;79.23;100628.84;5034860;28;20443;-71
2022/01/31 02:40:15;;;;;;;0.40;0.30;;;;;;;4.69;79.22;100628.00;5034736;28;20463;-71
2022/01/31 02:42:41;;;;;;;0.40;0.30;;;;;;;4.67;78.57;100633.63;5034802;28;20447;-71
2022/01/31 02:45:08;;;;;;;0.40;0.30;;;;;;;4.70;78.71;100625.06;5034719;28;20890;-71
2022/01/31 02:47:39;;;;;;;0.40;0.20;;;;;;;4.70;79.49;100606.28;5034690;28;20443;-71
2022/01/31 02:50:12;;;;;;;0.40;0.30;;;;;;;4.72;79.06;100597.97;5034607;28;20470;-71
2022/01/31 02:52:45;;;;;;;0.40;0.30;;;;;;;4.68;78.22;100592.31;5034684;28;20478;-71
2022/01/31 02:55:13;;;;;;;0.40;0.20;;;;;;;4.74;78.06;100593.16;5034036;28;20442;-70
2022/01/31 02:57:40;;;;;;;0.40;0.30;;;;;;;4.73;78.35;100589.66;5034168;28;20972;-71
2022/01/31 03:00:08;;;;;;;2.20;2.10;;;;;;;4.69;78.29;100577.84;5034449;28;20463;-71
2022/01/31 03:02:34;;;;;;;0.40;0.30;;;;;;;4.69;78.37;100574.34;5034345;28;20442;-71
2022/01/31 03:05:01;;;;;;;0.40;0.20;;;;;;;4.71;78.53;100562.28;5034208;28;20487;-71
2022/01/31 03:07:27;;;;;;;0.40;0.30;;;;;;;4.73;77.99;100573.56;5034031;28;20470;-71
2022/01/31 03:09:54;;;;;;;0.40;0.30;;;;;;;4.69;77.58;100563.59;5034271;28;20526;-71
2022/01/31 03:12:22;;;;;;;0.40;0.20;;;;;;;4.68;78.61;100562.81;5033940;28;20825;-71
2022/01/31 03:14:48;;;;;;;0.40;0.30;;;;;;;4.69;78.12;100553.72;5034133;28;20497;-71
2022/01/31 03:17:15;;;;;;;0.40;0.30;;;;;;;4.71;78.02;100540.81;5034141;28;20497;-71
2022/01/31 03:19:42;;;;;;;0.40;0.20;;;;;;;4.71;78.31;100540.81;5034026;28;20447;-71
2022/01/31 03:22:09;;;;;;;0.40;0.30;;;;;;;4.74;77.96;100544.88;5034061;28;20447;-71
2022/01/31 03:24:36;;;;;;;0.40;0.20;;;;;;;4.76;77.72;100534.66;5033669;28;20455;-71
2022/01/31 03:27:03;;;;;;;0.40;0.20;;;;;;;4.74;77.46;100529.56;5033868;28;20494;-71
2022/01/31 03:29:31;;;;;;;0.40;0.30;;;;;;;4.76;77.08;100511.31;5033870;28;20447;-71
2022/01/31 03:31:57;;;;;;;0.40;0.30;;;;;;;4.77;77.19;100507.56;5033946;28;20509;-71
2022/01/31 03:34:25;;;;;;;0.40;0.20;;;;;;;4.81;76.79;100503.28;5033783;28;20451;-71
2022/01/31 03:36:51;;;;;;;0.40;0.30;;;;;;;4.71;77.31;100492.53;5033826;28;20435;-71
2022/01/31 03:39:18;;;;;;;0.40;0.30;;;;;;;4.73;77.82;100479.66;5033759;28;20443;-71
2022/01/31 03:41:44;;;;;;;0.40;0.30;;;;;;;4.77;76.98;100470.00;5033421;28;20564;-71
2022/01/31 03:44:10;;;;;;;0.40;0.30;;;;;;;4.76;77.25;100471.09;5033356;28;20447;-71
2022/01/31 03:46:38;;;;;;;0.40;0.30;;;;;;;4.76;77.26;100459.53;5033601;28;20541;-71
2022/01/31 03:49:05;;;;;;;0.40;0.20;;;;;;;4.75;77.41;100453.38;5033648;28;20454;-71
2022/01/31 03:51:32;;;;;;;0.40;0.30;;;;;;;4.75;77.75;100445.31;5033139;28;20785;-71
2022/01/31 03:53:58;;;;;;;0.40;0.20;;;;;;;4.72;76.92;100450.41;5033244;28;20963;-71
2022/01/31 03:56:25;;;;;;;0.40;0.30;;;;;;;4.70;76.99;100442.63;5033472;28;20439;-71
2022/01/31 03:58:51;;;;;;;0.40;0.20;;;;;;;4.68;78.26;100434.03;5033444;28;20477;-71
2022/01/31 04:01:18;;;;;;;0.40;0.30;;;;;;;4.63;77.58;100425.19;5033373;28;20459;-71
2022/01/31 04:03:46;;;;;;;0.40;0.30;;;;;;;4.60;77.60;100421.13;5033433;28;20447;-71
2022/01/31 04:06:12;;;;;;;0.40;0.30;;;;;;;4.50;78.55;100415.75;5032974;28;20852;-71
2022/01/31 04:08:38;;;;;;;0.40;0.23;;;;;;;4.50;78.37;100413.06;5032283;28;20463;-71
2022/01/31 04:11:05;;;;;;;0.40;0.20;;;;;;;4.47;78.90;100405.56;5033261;28;20468;-71
2022/01/31 04:13:31;;;;;;;0.40;0.30;;;;;;;4.50;78.92;100388.94;5033219;28;20502;-71
2022/01/31 04:15:58;;;;;;;0.40;0.30;;;;;;;4.50;79.29;100379.00;5033213;28;20494;-71
2022/01/31 04:18:24;;;;;;;0.40;0.30;;;;;;;4.54;78.54;100376.63;5033244;28;20443;-71
2022/01/31 04:20:52;;;;;;;0.40;0.30;;;;;;;4.52;78.92;100370.72;5033138;28;20458;-71
2022/01/31 04:23:20;;;;;;;0.40;0.30;;;;;;;4.51;78.63;100358.38;5033224;28;20447;-71
2022/01/31 04:25:53;;;;;;;0.40;0.30;;;;;;;4.48;78.41;100357.03;5033085;28;20479;-71
2022/01/31 04:28:25;;;;;;;0.40;0.20;;;;;;;4.45;78.64;100354.06;5032840;28;20802;-71
2022/01/31 04:30:57;;;;;;;0.40;0.20;;;;;;;4.45;79.29;100340.66;5033085;28;20455;-71
2022/01/31 04:33:24;;;;;;;0.40;0.30;;;;;;;4.40;79.19;100333.41;5033130;28;20485;-71
2022/01/31 04:35:53;;;;;;;0.40;0.27;;;;;;;4.40;78.76;100329.94;5033278;28;20462;-71
2022/01/31 04:38:19;;;;;;;0.40;0.20;;;;;;;4.35;79.89;100324.56;5033327;28;20443;-71
2022/01/31 04:40:46;;;;;;;0.40;0.20;;;;;;;4.37;79.49;100320.53;5032561;28;20479;-70
2022/01/31 04:43:13;;;;;;;0.40;0.20;;;;;;;4.28;80.19;100306.84;5032978;28;20443;-71
2022/01/31 04:45:46;;;;;;;0.40;0.30;;;;;;;4.33;79.89;100299.88;5032865;28;20483;-70
2022/01/31 04:48:13;;;;;;;0.40;0.20;;;;;;;4.23;79.27;100289.97;5032742;28;20905;-71
2022/01/31 04:50:39;;;;;;;0.40;0.20;;;;;;;4.29;79.26;100284.34;5032840;28;20482;-70
2022/01/31 04:53:07;;;;;;;0.40;0.20;;;;;;;4.30;79.40;100277.91;5032861;28;20450;-71
2022/01/31 04:55:34;;;;;;;1.90;1.80;;;;;;;4.32;79.24;100274.16;5032839;28;20443;-71
2022/01/31 04:58:00;;;;;;;0.40;0.20;;;;;;;4.31;79.39;100273.34;5032844;28;20546;-71
2022/01/31 05:00:27;;;;;;;0.40;0.20;;;;;;;4.27;79.86;100267.72;5032772;28;20471;-71
2022/01/31 05:02:54;;;;;;;0.40;0.30;;;;;;;4.28;79.47;100263.16;5032807;28;20524;-71
2022/01/31 05:05:20;;;;;;;0.40;0.20;;;;;;;4.23;79.64;100250.56;5032669;28;20455;-70
2022/01/31 05:07:48;;;;;;;0.40;0.30;;;;;;;4.27;80.33;100257.00;5032515;28;20451;-71
2022/01/31 05:10:16;;;;;;;0.40;0.30;;;;;;;4.29;80.07;100254.88;5032635;28;20467;-70
2022/01/31 05:12:42;;;;;;;0.40;0.30;;;;;;;4.27;79.95;100248.94;5032755;28;20450;-71
2022/01/31 05:15:09;;;;;;;0.40;0.30;;;;;;;4.26;80.02;100250.03;5032705;28;20439;-71
2022/01/31 05:17:36;;;;;;;0.40;0.30;;;;;;;4.25;80.27;100235.03;5032411;28;20454;-71
2022/01/31 05:20:02;;;;;;;0.40;0.30;;;;;;;4.26;80.16;100230.47;5035902;28;20470;-71
2022/01/31 05:22:29;;;;;;;0.40;0.30;;;;;;;4.27;79.81;100224.03;5036287;28;20447;-71
2022/01/31 05:24:55;;;;;;;0.40;0.30;;;;;;;4.24;79.44;100222.66;5036271;28;20446;-71
2022/01/31 05:27:23;;;;;;;0.40;0.30;;;;;;;4.23;79.21;100213.03;5036132;28;20493;-71
2022/01/31 05:29:49;;;;;;;0.40;0.20;;;;;;;4.17;80.36;100198.03;5037529;28;20466;-71
2022/01/31 05:32:16;;;;;;;0.40;0.20;;;;;;;4.20;80.38;100189.44;5036037;28;20561;-71
2022/01/31 05:34:42;;;;;;;0.40;0.20;;;;;;;4.21;79.88;100188.38;5035612;28;20952;-70
2022/01/31 05:37:09;;;;;;;0.40;0.23;;;;;;;4.20;79.81;100181.38;5036056;28;20824;-70
2022/01/31 05:39:35;;;;;;;0.40;0.30;;;;;;;4.15;80.05;100169.88;5035686;28;20439;-71
2022/01/31 05:42:02;;;;;;;0.40;0.30;;;;;;;4.13;80.37;100170.16;5036151;28;20861;-70
2022/01/31 05:44:29;;;;;;;0.40;0.30;;;;;;;4.14;80.90;100155.66;5035991;28;20431;-71
2022/01/31 05:46:57;;;;;;;0.40;0.30;;;;;;;4.15;79.73;100154.59;5035776;28;20482;-70
2022/01/31 05:49:23;;;;;;;0.40;0.30;;;;;;;4.14;80.63;100144.94;5035493;28;21008;-71
2022/01/31 05:51:54;;;;;;;0.40;0.30;;;;;;;4.16;81.28;100142.00;5035413;28;20976;-70
2022/01/31 05:54:20;;;;;;;0.40;0.30;;;;;;;4.14;81.65;100134.22;5035472;28;20428;-71
2022/01/31 05:56:47;;;;;;;0.40;0.30;;;;;;;4.18;80.78;100135.31;5035441;28;21048;-70
2022/01/31 05:59:13;;;;;;;0.40;0.20;;;;;;;4.18;79.76;100124.56;5035655;28;20447;-70
2022/01/31 06:01:41;;;;;;;0.40;0.30;;;;;;;4.19;80.72;100115.47;5035601;28;20459;-71
2022/01/31 06:04:08;;;;;;;0.40;0.30;;;;;;;4.16;79.56;100118.69;5035469;28;20450;-70
2022/01/31 06:06:34;;;;;;;0.40;0.20;;;;;;;4.14;79.33;100112.00;5035437;28;20486;-71
2022/01/31 06:09:01;;;;;;;0.40;0.30;;;;;;;4.10;79.82;100101.00;5035212;28;20834;-70
2022/01/31 06:11:28;;;;;;;0.40;0.20;;;;;;;4.09;79.91;100095.91;5035318;28;20470;-71
2022/01/31 06:13:56;;;;;;;0.40;0.20;;;;;;;4.12;80.32;100087.31;5035369;28;20458;-71
2022/01/31 06:16:22;;;;;;;0.40;0.30;;;;;;;4.12;79.81;100087.31;5035267;28;20447;-71
2022/01/31 06:18:50;;;;;;;0.40;0.20;;;;;;;4.13;79.67;100083.59;5034934;28;20963;-71
2022/01/31 06:21:16;;;;;;;0.40;0.20;;;;;;;4.11;79.93;100080.34;5035045;28;20467;-71
2022/01/31 06:23:43;;;;;;;0.40;0.27;;;;;;;4.11;78.80;100077.69;5035190;28;20444;-71
2022/01/31 06:26:10;;;;;;;0.40;0.20;;;;;;;4.09;78.21;100072.59;5035034;28;20487;-71
2022/01/31 06:28:36;;;;;;;0.40;0.30;;;;;;;4.04;77.88;100057.34;5034767;28;20955;-71
2022/01/31 06:31:03;;;;;;;0.40;0.23;;;;;;;4.05;78.68;100060.81;5033912;28;20463;-71
2022/01/31 06:33:30;;;;;;;0.40;0.30;;;;;;;4.01;79.22;100049.03;5034952;28;20796;-71
2022/01/31 06:35:58;;;;;;;0.40;0.20;;;;;;;4.06;79.23;100046.34;5034883;28;20538;-71
2022/01/31 06:38:25;;;;;;;0.40;0.30;;;;;;;4.05;78.43;100053.56;5034613;28;20937;-71
2022/01/31 06:40:52;;;;;;;0.40;0.20;;;;;;;4.01;78.04;100030.28;5035352;28;20463;-71
2022/01/31 06:43:18;;;;;;;0.40;0.30;;;;;;;3.98;79.06;100025.44;5034547;28;20956;-71
2022/01/31 06:45:45;;;;;;;0.40;0.20;;;;;;;3.99;79.19;100013.69;5034425;28;20940;-71
2022/01/31 06:48:11;;;;;;;0.40;0.30;;;;;;;4.01;78.93;100017.66;5034660;28;20491;-71
2022/01/31 06:50:37;;;;;;;0.40;0.30;;;;;;;4.00;78.81;100009.91;5034615;28;20868;-71
2022/01/31 06:53:06;;;;;;;0.40;0.30;;;;;;;4.05;78.86;100004.53;5034328;28;20948;-71
2022/01/31 06:55:34;;;;;;;0.40;0.30;;;;;;;3.98;78.54;99995.97;5034474;28;20455;-71
2022/01/31 06:58:01;;;;;;;0.40;0.20;;;;;;;3.99;78.41;99989.56;5034491;28;20439;-71
2022/01/31 07:00:28;;;;;;;0.40;0.20;;;;;;;3.98;78.28;99986.06;5034394;28;20470;-71
2022/01/31 07:02:54;;;;;;;0.40;0.30;;;;;;;4.02;79.17;99984.44;5034396;28;20481;-71
2022/01/31 07:05:21;;;;;;;0.40;0.30;;;;;;;4.06;78.85;99987.38;5034321;28;20450;-71
2022/01/31 07:07:49;;;;;;;0.40;0.20;;;;;;;4.05;78.55;99983.09;5034035;28;20494;-71
2022/01/31 07:10:16;;;;;;;0.40;0.20;;;;;;;4.02;78.25;99976.41;5034163;28;20520;-71
2022/01/31 07:12:49;;;;;;;0.40;0.23;;;;;;;3.97;80.10;99975.63;5034180;28;20454;-71
2022/01/31 07:15:16;;;;;;;0.40;0.30;;;;;;;4.03;80.23;99982.59;5034198;28;20432;-71
2022/01/31 07:17:44;;;;;;;0.40;0.20;;;;;;;4.07;79.54;99978.25;5034122;28;20439;-71
2022/01/31 07:20:19;;;;;;;0.40;0.20;;;;;;;4.03;78.06;99969.19;5033942;28;20516;-70
2022/01/31 07:22:52;;;;;;;0.40;0.30;;;;;;;4.03;78.54;99967.31;5034047;28;20434;-71
2022/01/31 07:25:34;;;;;;;0.40;0.20;;;;;;;4.05;78.44;99964.34;5034045;28;20443;-71
2022/01/31 07:28:01;;;;;;;0.40;0.30;;;;;;;4.06;78.97;99965.94;5034028;28;20502;-72
2022/01/31 07:30:27;;;;;;;0.40;0.20;;;;;;;4.07;78.70;99956.03;5033837;28;20455;-71
2022/01/31 07:32:54;;;;;;;0.40;0.20;;;;;;;4.04;78.59;99950.16;5033851;28;20439;-71
2022/01/31 07:35:20;;;;;;;0.40;0.20;;;;;;;4.09;79.07;99954.69;5033856;28;20435;-71
2022/01/31 07:37:47;;;;;;;0.40;0.20;;;;;;;4.09;78.63;99951.22;5033930;28;20493;-71
2022/01/31 07:40:14;;;;;;;0.40;0.20;;;;;;;4.10;79.01;99942.88;5033713;28;20469;-70
2022/01/31 07:42:42;;;;;;;0.40;0.30;;;;;;;4.11;78.92;99933.75;5033435;28;20450;-71
2022/01/31 07:45:09;;;;;;;0.40;0.30;;;;;;;4.12;79.27;99937.25;5033637;28;20439;-71
2022/01/31 07:47:42;;;;;;;0.40;0.30;;;;;;;4.11;79.11;99932.97;5033536;28;20483;-71
2022/01/31 07:50:10;;;;;;;0.40;0.30;;;;;;;4.17;78.69;99935.38;5033895;28;20467;-71
2022/01/31 07:52:36;;;;;;;0.40;0.20;;;;;;;4.08;77.60;99926.28;5033676;28;20551;-71
2022/01/31 07:55:03;;;;;;;0.40;0.20;;;;;;;4.13;78.19;99925.47;5033476;28;20824;-71
2022/01/31 07:57:30;;;;;;;0.40;0.30;;;;;;;4.10;78.21;99921.44;5033439;28;20439;-71
2022/01/31 07:59:58;;;;;;;0.40;0.30;;;;;;;4.07;78.28;99910.47;5033048;28;21042;-71
2022/01/31 08:02:24;;;;;;;0.40;0.20;;;;;;;4.09;78.15;99914.50;5033318;28;20439;-71
2022/01/31 08:04:54;;;;;;;1.03;1.03;;;;;;;4.13;78.75;99894.09;5033329;28;20443;-70
2022/01/31 08:07:21;;;;;;;0.40;0.30;;;;;;;4.17;79.08;99897.06;5033186;28;20478;-71
2022/01/31 08:09:47;;;;;;;0.40;0.30;;;;;;;4.06;78.04;99890.91;5033256;28;20471;-70
2022/01/31 08:12:14;;;;;;;0.40;0.30;;;;;;;4.05;78.38;99890.13;5033251;28;20454;-71
2022/01/31 08:14:40;;;;;;;0.40;0.20;;;;;;;4.14;78.43;99897.59;5032940;28;20994;-71
2022/01/31 08:17:08;;;;;;;0.40;0.30;;;;;;;4.13;79.84;99886.06;5032908;28;20973;-71
2022/01/31 08:19:35;;;;;;;0.40;0.30;;;;;;;4.17;79.82;99887.13;5032425;28;20955;-71
2022/01/31 08:22:01;;;;;;;0.40;0.30;;;;;;;4.17;79.14;99887.13;5033145;28;20470;-71
2022/01/31 08:24:27;;;;;;;0.40;0.30;;;;;;;4.20;79.49;99888.44;5033236;28;20489;-71
2022/01/31 08:26:54;;;;;;;0.40;0.30;;;;;;;4.25;79.77;99891.09;5033012;28;20483;-71
2022/01/31 08:29:24;;;;;;;0.40;0.30;;;;;;;4.34;79.42;99891.31;5032798;28;20818;-71
2022/01/31 08:31:53;;;;;;;0.40;0.20;;;;;;;4.41;79.12;99881.09;5032989;28;20497;-71
2022/01/31 08:35:47;;;;;;;0.40;0.30;;;;;;;4.40;79.47;99884.84;5033180;28;20482;-71
2022/01/31 08:37:13;;;;;;;0.40;0.30;;;;;;;4.48;78.63;99877.03;5032636;28;20526;-71
2022/01/31 08:39:39;;;;;;;0.40;0.23;;;;;;;4.55;78.41;99871.34;5033017;28;20487;-71
2022/01/31 08:42:07;;;;;;;0.40;0.20;;;;;;;4.59;77.36;99871.59;5032670;28;20929;-71
2022/01/31 08:44:33;;;;;;;0.40;0.20;;;;;;;4.63;77.33;99867.28;5032960;28;20443;-71
2022/01/31 08:47:00;;;;;;;0.40;0.27;;;;;;;4.68;77.49;99862.66;5032543;28;21024;-71
2022/01/31 08:49:29;;;;;;;0.40;0.30;;;;;;;4.70;77.51;99851.69;5032930;28;20443;-71
2022/01/31 08:51:56;;;;;;;0.40;0.23;;;;;;;4.68;76.31;99857.31;5032872;28;20450;-71
2022/01/31 08:54:22;;;;;;;0.40;0.30;;;;;;;4.63;77.91;99838.56;5035038;28;20489;-71
2022/01/31 08:56:49;;;;;;;0.40;0.30;;;;;;;4.70;77.80;99844.44;5036492;28;20940;-71
2022/01/31 08:59:19;;;;;;;0.40;0.27;;;;;;;4.72;77.00;99844.13;5036706;28;20509;-71
2022/01/31 09:01:52;;;;;;;0.40;0.30;;;;;;;4.72;76.49;99838.78;5036113;28;20486;-71
2022/01/31 09:04:32;;;;;;;0.40;0.30;;;;;;;4.73;77.13;99830.44;5036584;28;20424;-71
2022/01/31 09:07:00;;;;;;;0.40;0.30;;;;;;;4.79;77.53;99836.59;5036508;28;20474;-71
2022/01/31 09:09:26;;;;;;;0.40;0.30;;;;;;;4.79;76.55;99833.91;5036142;28;20537;-71
2022/01/31 09:11:53;;;;;;;0.40;0.30;;;;;;;4.80;75.63;99836.28;5036511;28;20450;-71
2022/01/31 09:14:19;;;;;;;0.40;0.20;;;;;;;4.84;76.36;99835.75;5036510;28;20442;-71
2022/01/31 09:16:46;;;;;;;0.40;0.20;;;;;;;4.83;77.10;99828.78;5036431;28;20451;-71
2022/01/31 09:19:12;;;;;;;0.40;0.23;;;;;;;4.90;76.49;99823.88;5036356;28;20454;-71
2022/01/31 09:21:38;;;;;;;0.40;0.20;;;;;;;4.91;76.71;99825.47;5035995;28;20493;-71
2022/01/31 09:24:07;;;;;;;0.40;0.30;;;;;;;5.01;77.17;99820.03;5036317;28;20457;-71
2022/01/31 09:26:34;;;;;;;0.40;0.30;;;;;;;5.10;76.45;99825.59;5036257;28;20451;-71
2022/01/31 09:29:01;;;;;;;0.40;0.30;;;;;;;5.09;76.06;99814.03;5035836;28;20493;-71
2022/01/31 09:31:27;;;;;;;0.40;0.30;;;;;;;5.09;75.99;99819.41;5036072;28;20474;-71
2022/01/31 09:33:53;;;;;;;0.40;0.20;;;;;;;5.14;74.61;99815.88;5036124;28;20451;-71
2022/01/31 09:36:22;;;;;;;0.40;0.20;;;;;;;5.16;74.26;99817.19;5036107;28;20447;-71
2022/01/31 09:38:48;;;;;;;0.40;0.20;;;;;;;5.14;73.37;99808.63;5036021;28;20450;-71
2022/01/31 09:41:21;;;;;;;1.60;1.50;;;;;;;5.13;74.24;99812.38;5035866;28;20466;-71
2022/01/31 09:44:05;;;;;;;0.40;0.20;;;;;;;5.14;74.55;99803.25;5035967;28;20785;-71
2022/01/31 09:49:19;;;;;;;0.40;0.20;;;;;;;5.24;74.54;99794.28;5035913;28;20826;-71
2022/01/31 09:51:47;;;;;;;0.40;0.30;;;;;;;5.19;73.47;99795.16;5035757;28;20546;-71
2022/01/31 09:54:14;;;;;;;0.40;0.30;;;;;;;5.21;73.73;99792.97;5035699;28;20873;-71
2022/01/31 09:56:44;;;;;;;0.40;0.30;;;;;;;5.26;73.78;99790.22;5035693;28;20450;-71
2022/01/31 09:59:12;;;;;;;0.40;0.30;;;;;;;5.29;73.89;99788.88;5035733;28;20477;-71
2022/01/31 10:01:42;;;;;;;0.40;0.30;;;;;;;5.37;73.75;99798.19;5035507;28;20467;-71
2022/01/31 10:04:14;;;;;;;0.40;0.30;;;;;;;5.32;73.93;99791.78;5035509;28;20447;-71
2022/01/31 10:06:41;;;;;;;0.40;0.30;;;;;;;5.39;73.04;99798.69;5035224;28;20995;-71
2022/01/31 10:09:11;;;;;;;0.40;0.30;;;;;;;5.44;73.65;99796.72;5034925;28;20537;-71
2022/01/31 10:11:45;;;;;;;0.40;0.30;;;;;;;5.41;71.86;99801.91;5035526;28;20827;-71
2022/01/31 10:17:11;;;;;;;0.40;0.20;;;;;;;5.30;73.47;99793.94;5035168;28;20403;-71
2022/01/31 10:19:43;;;;;;;0.40;0.30;;;;;;;5.30;73.16;99802.00;5035247;28;20442;-71
2022/01/31 10:22:11;;;;;;;0.40;0.20;;;;;;;5.31;72.63;99798.25;5034894;28;20450;-71
2022/01/31 10:24:39;;;;;;;0.40;0.20;;;;;;;5.37;73.09;99792.81;5034882;28;20440;-71
2022/01/31 10:27:08;;;;;;;0.40;0.20;;;;;;;5.36;71.85;99801.94;5034994;28;20443;-71
2022/01/31 10:29:36;;;;;;;0.40;0.20;;;;;;;5.31;72.86;99795.56;5034947;28;20825;-71
2022/01/31 10:32:06;;;;;;;0.40;0.27;;;;;;;5.29;72.96;99789.66;5035053;28;20866;-71
2022/01/31 10:34:35;;;;;;;0.40;0.30;;;;;;;5.19;73.15;99780.94;5034875;28;20435;-71
2022/01/31 10:37:05;;;;;;;0.40;0.30;;;;;;;5.28;73.59;99790.75;5034735;28;20534;-71
2022/01/31 10:45:30;;;;;;;0.40;0.20;;;;;;;5.35;72.54;99776.16;5017429;28;20447;-71
2022/01/31 10:51:51;;;;;;;0.40;0.23;;;;;;;5.28;71.74;99779.22;5015827;28;20501;-71
2022/01/31 10:54:26;;;;;;;0.40;0.27;;;;;;;5.28;73.70;99771.97;5034169;28;20439;-71
2022/01/31 10:56:54;;;;;;;0.40;0.20;;;;;;;5.36;73.04;99772.41;5034617;28;20430;-71
2022/01/31 10:59:25;;;;;;;1.83;1.73;;;;;;;5.37;73.17;99772.13;5034568;28;20439;-71
2022/01/31 11:01:54;;;;;;;0.40;0.30;;;;;;;5.37;72.63;99772.13;5034483;28;20508;-71
2022/01/31 11:04:23;;;;;;;0.40;0.20;;;;;;;5.42;72.93;99785.50;5034458;28;20443;-71
2022/01/31 11:06:58;;;;;;;0.40;0.20;;;;;;;5.42;73.60;99782.81;5034413;28;20435;-71
2022/01/31 11:09:24;;;;;;;0.40;0.20;;;;;;;5.48;73.70;99778.97;5033947;28;20497;-71
2022/01/31 11:11:52;;;;;;;0.40;0.30;;;;;;;5.54;72.75;99777.84;5034241;28;20466;-71
2022/01/31 11:14:20;;;;;;;0.40;0.30;;;;;;;5.51;71.76;99782.97;5033953;28;20526;-71
2022/01/31 11:16:48;;;;;;;0.40;0.30;;;;;;;5.44;73.12;99785.19;5033396;28;20450;-71
2022/01/31 11:19:23;;;;;;;0.40;0.30;;;;;;;5.50;73.73;99784.06;5034202;28;20443;-71
2022/01/31 11:21:50;;;;;;;0.40;0.30;;;;;;;5.51;73.76;99791.03;5033760;28;20991;-71
2022/01/31 11:24:22;;;;;;;0.40;0.30;;;;;;;5.55;73.18;99781.31;5034035;28;20447;-73
2022/01/31 11:26:50;;;;;;;0.40;0.20;;;;;;;5.55;73.79;99782.09;5034093;28;20428;-74
2022/01/31 11:29:17;;;;;;;0.40;0.30;;;;;;;5.49;74.20;99777.91;5035326;28;20490;-74
2022/01/31 11:31:45;;;;;;;0.40;0.23;;;;;;;5.53;75.48;99770.03;5033921;28;20466;-74
2022/01/31 11:34:12;;;;;;;0.40;0.30;;;;;;;5.57;76.40;99768.38;5033846;28;20505;-74
2022/01/31 11:36:41;;;;;;;0.40;0.30;;;;;;;5.57;75.96;99773.75;5033533;28;20451;-74
2022/01/31 11:39:10;;;;;;;0.40;0.30;;;;;;;5.52;76.07;99771.13;5033745;28;20848;-74
2022/01/31 11:41:44;;;;;;;0.40;0.30;;;;;;;5.51;76.52;99769.53;5033645;28;20459;-74
2022/01/31 11:44:18;;;;;;;0.40;0.30;;;;;;;5.63;76.92;99761.88;5033740;28;20430;-74
2022/01/31 11:46:44;;;;;;;0.40;0.30;;;;;;;5.75;75.19;99762.22;5033795;28;20857;-74
2022/01/31 11:49:13;;;;;;;4.83;3.50;;;;;;;5.81;75.59;99763.78;5033472;28;20478;-74
2022/01/31 11:52:01;;;;;;;0.40;0.20;;;;;;;5.93;76.50;99765.25;5033534;28;20509;-74
2022/01/31 11:54:27;;;;;;;0.40;0.20;;;;;;;6.04;76.13;99767.53;5033628;28;20447;-74